Time;durP1;ratioP1;P1;durP2;ratioP2;P2;SDS_P1;SDS_P2;PMS_P1;PMS_P2;Temp;Humidity;BMP_temperature;BMP_pressure;BME280_temperature;BME280_humidity;BME280_pressure;Samples;Min_cycle;Max_cycle;Signal;HPM_P1;HPM_P2
2023/05/15 00:00:43;;;;;;;4.95;2.45;;;9.20;99.90;;;;;;5024620;28;20322;-81
2023/05/15 00:03:09;;;;;;;4.13;2.00;;;9.30;99.90;;;;;;4993820;28;20101;-82
2023/05/15 00:05:35;;;;;;;1.83;1.73;;;9.20;99.90;;;;;;4986745;28;20046;-81
2023/05/15 00:08:01;;;;;;;2.33;2.13;;;9.20;99.90;;;;;;5015862;28;20109;-81
2023/05/15 00:10:27;;;;;;;2.28;2.08;;;9.10;99.90;;;;;;5016227;28;20018;-80
2023/05/15 00:12:52;;;;;;;2.75;2.50;;;9.00;99.90;;;;;;5017732;28;20028;-80
2023/05/15 00:15:18;;;;;;;3.00;2.42;;;9.00;99.90;;;;;;4983806;28;20026;-81
2023/05/15 00:17:43;;;;;;;3.53;2.05;;;9.00;99.90;;;;;;5016319;28;20295;-80
2023/05/15 00:20:10;;;;;;;2.03;1.80;;;9.00;99.90;;;;;;5015959;28;20084;-80
2023/05/15 00:22:39;;;;;;;2.30;2.10;;;9.00;99.90;;;;;;5000369;28;20041;-81
2023/05/15 00:25:05;;;;;;;3.03;1.90;;;8.90;99.90;;;;;;4974851;28;20441;-79
2023/05/15 00:27:31;;;;;;;4.32;2.28;;;10.00;99.90;;;;;;4985416;28;20472;-80
2023/05/15 00:29:56;;;;;;;2.10;1.90;;;9.00;99.90;;;;;;5015926;28;20035;-80
2023/05/15 00:32:22;;;;;;;4.00;2.85;;;9.00;99.90;;;;;;5017056;28;20030;-80
2023/05/15 00:34:47;;;;;;;2.42;2.22;;;9.00;99.90;;;;;;4983577;28;20033;-79
2023/05/15 00:37:13;;;;;;;2.40;2.20;;;9.00;99.90;;;;;;5015684;28;20471;-80
2023/05/15 00:39:39;;;;;;;3.05;2.15;;;9.00;99.90;;;;;;5012118;28;20030;-80
2023/05/15 00:42:06;;;;;;;2.75;2.47;;;8.90;99.90;;;;;;5020699;28;20022;-79
2023/05/15 00:44:33;;;;;;;3.00;2.30;;;8.90;99.90;;;;;;4989567;28;20046;-81
2023/05/15 00:47:01;;;;;;;4.03;2.45;;;8.90;99.90;;;;;;4991197;28;20042;-81
2023/05/15 00:49:28;;;;;;;3.50;2.58;;;8.90;99.90;;;;;;4988739;28;20036;-82
2023/05/15 00:51:56;;;;;;;4.15;2.47;;;8.90;99.90;;;;;;4989001;28;20026;-80
2023/05/15 00:54:22;;;;;;;2.78;2.53;;;9.00;99.90;;;;;;5009247;28;20021;-80
2023/05/15 00:56:49;;;;;;;1.98;1.80;;;9.00;99.90;;;;;;4988116;28;20050;-81
2023/05/15 00:59:16;;;;;;;2.30;1.65;;;;;;;;;;5024220;28;20088;-81
2023/05/15 01:01:44;;;;;;;2.75;2.08;;;;;;;;;;4988357;28;20023;-81
2023/05/15 01:04:10;;;;;;;2.30;2.10;;;9.00;99.90;;;;;;4992143;28;20030;-80
2023/05/15 01:06:36;;;;;;;2.50;2.22;;;9.00;99.90;;;;;;5006084;28;20019;-80
2023/05/15 01:09:03;;;;;;;2.10;1.90;;;9.00;99.90;;;;;;4993123;28;20061;-81
2023/05/15 01:11:34;;;;;;;3.88;2.30;;;9.00;99.90;;;;;;4991507;28;20105;-80
2023/05/15 01:14:04;;;;;;;3.38;2.25;;;9.00;99.90;;;;;;4989464;28;20030;-81
2023/05/15 01:16:31;;;;;;;2.17;1.98;;;9.00;99.90;;;;;;4990428;28;20019;-81
2023/05/15 01:18:57;;;;;;;3.25;2.28;;;;;;;;;;4988867;28;20041;-81
2023/05/15 01:21:39;;;;;;;2.38;2.17;;;8.80;99.90;;;;;;4989870;28;20034;-79
2023/05/15 01:24:23;;;;;;;3.47;1.92;;;8.90;99.90;;;;;;5022143;28;20030;-81
2023/05/15 01:27:07;;;;;;;3.47;1.92;;;8.90;99.90;;;;;;4987298;28;20064;-80
2023/05/15 01:30:14;;;;;;;2.05;1.85;;;8.90;99.90;;;;;;4989031;28;20022;-80
2023/05/15 01:32:58;;;;;;;1.83;1.70;;;8.90;99.90;;;;;;4988109;28;20038;-80
2023/05/15 01:35:44;;;;;;;2.85;2.17;;;8.90;99.90;;;;;;4985214;28;20073;-80
2023/05/15 01:38:37;;;;;;;3.88;2.28;;;8.90;99.90;;;;;;4987843;28;20270;-82
2023/05/15 01:41:34;;;;;;;2.83;2.08;;;8.80;99.90;;;;;;4987832;28;20097;-80
2023/05/15 01:44:27;;;;;;;1.55;1.45;;;8.60;99.90;;;;;;4987242;28;20022;-79
2023/05/15 01:46:56;;;;;;;1.85;1.67;;;8.50;99.90;;;;;;4988231;28;20085;-79
2023/05/15 01:49:25;;;;;;;2.40;2.20;;;8.40;99.90;;;;;;4985525;28;20546;-80
2023/05/15 01:52:01;;;;;;;2.35;1.95;;;8.40;99.90;;;;;;5003608;28;20365;-82
2023/05/15 01:54:28;;;;;;;2.70;1.77;;;8.40;99.90;;;;;;4983468;28;20022;-79
2023/05/15 01:56:56;;;;;;;3.03;1.98;;;8.40;99.90;;;;;;5003831;28;20054;-80
2023/05/15 01:59:23;;;;;;;2.83;1.70;;;8.30;99.90;;;;;;4988518;28;20081;-80
2023/05/15 02:01:50;;;;;;;3.75;2.00;;;8.20;99.90;;;;;;4985031;28;20038;-81
2023/05/15 02:04:18;;;;;;;3.47;2.78;;;8.20;99.90;;;;;;4985245;28;20660;-80
2023/05/15 02:06:45;;;;;;;3.45;2.67;;;;;;;;;;4986698;28;20053;-80
2023/05/15 02:09:11;;;;;;;1.63;1.52;;;;;;;;;;5005577;28;20046;-82
2023/05/15 02:11:37;;;;;;;2.83;2.45;;;;;;;;;;4989819;28;20076;-82
2023/05/15 02:14:04;;;;;;;2.97;2.72;;;8.10;99.90;;;;;;4986931;28;20022;-80
2023/05/15 02:16:30;;;;;;;2.20;1.75;;;;;;;;;;4985770;28;20498;-79
2023/05/15 02:18:56;;;;;;;2.30;2.10;;;;;;;;;;4988007;28;20102;-79
2023/05/15 02:21:21;;;;;;;2.55;2.13;;;7.90;99.90;;;;;;4986511;28;20027;-80
2023/05/15 02:23:47;;;;;;;5.53;2.03;;;7.90;99.90;;;;;;5006848;28;20034;-80
2023/05/15 02:26:37;;;;;;;2.35;1.90;;;7.70;99.90;;;;;;5005453;28;20062;-80
2023/05/15 02:29:21;;;;;;;2.33;2.13;;;7.70;99.90;;;;;;5006438;28;20014;-80
2023/05/15 02:32:40;;;;;;;3.22;1.85;;;7.60;99.90;;;;;;4986031;28;20050;-80
2023/05/15 02:35:09;;;;;;;6.63;2.70;;;7.60;99.90;;;;;;4958518;28;20038;-80
2023/05/15 02:37:38;;;;;;;1.57;1.43;;;7.60;99.90;;;;;;4985486;28;20301;-80
2023/05/15 02:40:10;;;;;;;4.20;1.60;;;7.50;99.90;;;;;;4988497;28;20058;-81
2023/05/15 02:42:36;;;;;;;4.10;2.10;;;7.50;99.90;;;;;;4989249;28;20052;-80
2023/05/15 02:45:04;;;;;;;4.53;2.35;;;7.40;99.90;;;;;;4988291;28;20039;-80
2023/05/15 02:47:29;;;;;;;2.65;2.28;;;7.30;99.90;;;;;;5022482;28;20023;-80
2023/05/15 02:49:56;;;;;;;2.35;1.85;;;7.30;99.90;;;;;;5019577;28;20077;-81
2023/05/15 02:52:23;;;;;;;3.17;2.00;;;7.40;99.90;;;;;;5027651;28;20022;-81
2023/05/15 02:54:49;;;;;;;3.20;2.17;;;;;;;;;;4992465;28;20031;-81
2023/05/15 02:57:15;;;;;;;2.78;1.90;;;;;;;;;;4990303;28;20030;-80
2023/05/15 02:59:41;;;;;;;1.95;1.65;;;7.50;99.90;;;;;;4994915;28;20025;-81
2023/05/15 03:02:07;;;;;;;2.50;2.30;;;7.50;99.90;;;;;;5027396;28;20022;-81
2023/05/15 03:04:33;;;;;;;3.47;2.22;;;7.40;99.90;;;;;;5023420;28;20069;-80
2023/05/15 03:06:59;;;;;;;2.42;2.22;;;;;;;;;;5006762;28;20222;-81
2023/05/15 03:09:25;;;;;;;2.53;2.30;;;7.30;99.90;;;;;;4986075;28;20054;-81
2023/05/15 03:11:50;;;;;;;4.60;2.38;;;7.20;99.90;;;;;;5021405;28;20103;-79
2023/05/15 03:14:16;;;;;;;2.50;2.10;;;7.20;99.90;;;;;;5021251;28;20041;-82
2023/05/15 03:16:42;;;;;;;2.63;2.08;;;7.20;99.90;;;;;;5021540;28;20069;-81
2023/05/15 03:19:07;;;;;;;2.45;2.13;;;7.00;99.90;;;;;;4991057;28;20038;-81
2023/05/15 03:21:33;;;;;;;4.78;1.95;;;6.90;99.90;;;;;;5007600;28;20023;-82
2023/05/15 03:24:00;;;;;;;3.20;1.98;;;;;;;;;;5022775;28;20045;-81
2023/05/15 03:26:26;;;;;;;2.70;2.45;;;6.90;99.90;;;;;;5006230;28;20030;-81
2023/05/15 03:28:52;;;;;;;3.65;2.80;;;6.90;99.90;;;;;;5003756;28;20037;-79
2023/05/15 03:31:17;;;;;;;2.13;1.92;;;6.90;99.90;;;;;;4985772;28;20033;-80
2023/05/15 03:33:45;;;;;;;2.60;2.40;;;6.90;99.90;;;;;;5004445;28;20022;-80
2023/05/15 03:36:11;;;;;;;7.72;1.95;;;6.90;99.90;;;;;;5021809;28;20026;-80
2023/05/15 03:38:37;;;;;;;2.00;1.90;;;6.90;99.90;;;;;;5005623;28;20026;-80
2023/05/15 03:41:02;;;;;;;1.98;1.75;;;6.90;99.90;;;;;;5017140;28;20484;-79
2023/05/15 03:43:28;;;;;;;3.65;1.85;;;6.90;99.90;;;;;;5017466;28;20030;-81
2023/05/15 03:45:54;;;;;;;3.13;2.88;;;6.90;99.90;;;;;;5018161;28;20058;-81
2023/05/15 03:48:20;;;;;;;2.85;2.58;;;6.80;99.90;;;;;;5016560;28;20026;-80
2023/05/15 03:50:45;;;;;;;3.42;2.10;;;7.80;99.90;;;;;;4984462;28;20058;-80
2023/05/15 03:53:11;;;;;;;2.67;2.47;;;6.80;99.90;;;;;;5016206;28;20030;-80
2023/05/15 03:55:37;;;;;;;2.55;2.08;;;6.90;99.90;;;;;;5002665;28;20342;-80
2023/05/15 03:58:03;;;;;;;3.58;2.10;;;6.90;99.90;;;;;;4985268;28;20062;-81
2023/05/15 04:00:28;;;;;;;2.50;2.30;;;6.90;99.90;;;;;;5018724;28;20088;-80
2023/05/15 04:02:54;;;;;;;2.40;2.20;;;6.80;99.90;;;;;;5021274;28;20026;-80
2023/05/15 04:05:20;;;;;;;2.85;2.50;;;6.80;99.90;;;;;;4991569;28;20042;-79
2023/05/15 04:07:46;;;;;;;1.85;1.75;;;6.80;99.90;;;;;;5024665;28;20037;-80
2023/05/15 04:10:12;;;;;;;6.72;2.60;;;6.80;99.90;;;;;;5021400;28;20029;-79
2023/05/15 04:12:38;;;;;;;2.92;2.30;;;;;;;;;;4991399;28;20580;-80
2023/05/15 04:15:20;;;;;;;3.50;2.30;;;6.80;99.90;;;;;;4990374;28;20081;-81
2023/05/15 04:17:47;;;;;;;2.90;1.75;;;6.80;99.90;;;;;;4992381;28;20094;-80
2023/05/15 04:20:14;;;;;;;2.78;2.47;;;6.80;99.90;;;;;;5008407;28;20090;-81
2023/05/15 04:22:40;;;;;;;2.15;1.92;;;6.90;99.90;;;;;;5007453;28;20026;-82
2023/05/15 04:25:08;;;;;;;7.72;3.45;;;7.10;99.90;;;;;;4987734;28;20038;-81
2023/05/15 04:27:34;;;;;;;3.53;2.95;;;;;;;;;;4990682;28;20080;-82
2023/05/15 04:30:00;;;;;;;3.13;2.45;;;7.40;99.90;;;;;;4989468;28;20053;-81
2023/05/15 04:32:26;;;;;;;3.67;2.78;;;7.40;99.90;;;;;;4989401;28;20086;-79
2023/05/15 04:34:52;;;;;;;3.95;3.35;;;7.50;99.90;;;;;;5020546;28;20088;-81
2023/05/15 04:37:18;;;;;;;3.55;2.72;;;;;;;;;;4988564;28;20143;-81
2023/05/15 04:39:44;;;;;;;3.72;3.22;;;7.90;99.90;;;;;;4990693;28;20041;-81
2023/05/15 04:42:10;;;;;;;4.47;3.53;;;7.90;99.90;;;;;;4991790;28;20172;-81
2023/05/15 04:44:35;;;;;;;5.25;2.80;;;8.20;99.90;;;;;;5020600;28;20046;-80
2023/05/15 04:47:01;;;;;;;2.60;2.40;;;8.30;99.90;;;;;;5008414;28;20018;-80
2023/05/15 04:49:27;;;;;;;3.63;2.55;;;8.30;99.90;;;;;;5009213;28;20306;-81
2023/05/15 04:51:53;;;;;;;3.33;3.03;;;;;;;;;;5025858;28;20035;-82
2023/05/15 04:54:19;;;;;;;2.83;2.13;;;;;;;;;;5009643;28;20014;-81
2023/05/15 04:56:46;;;;;;;2.08;1.90;;;;;;;;;;5010488;28;20023;-81
2023/05/15 04:59:12;;;;;;;2.58;2.00;;;8.30;99.90;;;;;;4994239;28;20021;-81
2023/05/15 05:01:38;;;;;;;3.75;3.35;;;8.30;99.90;;;;;;5025522;28;20218;-81
2023/05/15 05:04:04;;;;;;;3.58;2.85;;;8.50;99.90;;;;;;4993353;28;20027;-83
2023/05/15 05:06:30;;;;;;;3.10;2.05;;;8.50;99.90;;;;;;4994890;28;20036;-80
2023/05/15 05:08:55;;;;;;;4.13;2.67;;;8.40;99.90;;;;;;5027175;28;20038;-83
2023/05/15 05:11:21;;;;;;;3.20;2.33;;;8.60;99.90;;;;;;5011347;28;20022;-82
2023/05/15 05:13:48;;;;;;;2.92;2.72;;;8.80;99.90;;;;;;5027157;28;20037;-81
2023/05/15 05:16:13;;;;;;;5.88;2.75;;;9.00;99.90;;;;;;4990727;28;20023;-81
2023/05/15 05:18:39;;;;;;;3.63;2.38;;;;;;;;;;5026638;28;20037;-82
2023/05/15 05:21:05;;;;;;;3.28;2.53;;;9.50;99.90;;;;;;4998589;28;20541;-81
2023/05/15 05:23:31;;;;;;;3.55;2.10;;;9.70;99.90;;;;;;4999000;28;20019;-81
2023/05/15 05:25:59;;;;;;;2.28;2.08;;;9.90;99.90;;;;;;5014456;28;20010;-83
2023/05/15 05:28:25;;;;;;;4.00;2.33;;;10.10;99.90;;;;;;4997445;28;20023;-81
2023/05/15 05:30:50;;;;;;;2.72;2.38;;;10.00;99.90;;;;;;5000781;28;20022;-81
2023/05/15 05:33:16;;;;;;;4.22;3.80;;;10.20;99.90;;;;;;4997993;28;20054;-81
2023/05/15 05:35:42;;;;;;;8.25;4.28;;;10.40;99.90;;;;;;4974863;28;20077;-79
2023/05/15 05:38:07;;;;;;;10.95;5.93;;;12.70;99.90;;;;;;4999954;28;20041;-79
2023/05/15 05:40:40;;;;;;;11.57;5.60;;;;;;;;;;5010598;28;20014;-81
2023/05/15 05:43:12;;;;;;;9.10;4.60;;;11.20;99.90;;;;;;4977319;28;20037;-81
2023/05/15 05:45:38;;;;;;;6.35;4.53;;;11.20;99.90;;;;;;4995788;28;20094;-79
2023/05/15 05:48:03;;;;;;;7.75;5.13;;;11.50;99.90;;;;;;4966426;28;20127;-79
2023/05/15 05:50:29;;;;;;;6.45;5.10;;;11.50;99.90;;;;;;4983500;28;20027;-79
2023/05/15 05:52:55;;;;;;;7.65;4.88;;;11.70;99.90;;;;;;4964998;28;20310;-80
2023/05/15 05:55:20;;;;;;;8.52;4.60;;;11.80;99.90;;;;;;4983342;28;20031;-78
2023/05/15 05:57:46;;;;;;;4.88;3.53;;;12.00;99.90;;;;;;4961072;28;20023;-82
2023/05/15 06:00:25;;;;;;;4.43;3.17;;;12.00;99.90;;;;;;5033791;23;20059;-83
2023/05/15 06:03:13;;;;;;;3.92;3.60;;;;;;;;;;5305850;23;20135;-78
2023/05/15 06:05:41;;;;;;;5.15;3.72;;;11.80;99.90;;;;;;4980041;28;20042;-82
2023/05/15 06:08:35;;;;;;;5.00;4.30;;;11.90;99.90;;;;;;4982481;28;20023;-82
2023/05/15 06:11:01;;;;;;;6.82;4.22;;;;;;;;;;4981585;28;20058;-82
2023/05/15 06:13:27;;;;;;;9.32;5.22;;;;;;;;;;4979698;28;20031;-81
2023/05/15 06:15:53;;;;;;;9.32;5.47;;;;;;;;;;4981172;28;20023;-82
2023/05/15 06:20:59;;;;;;;9.10;5.70;;;;;;;;;;5379358;23;20362;-83
2023/05/15 06:23:33;;;;;;;12.35;6.22;;;12.00;99.90;;;;;;5548483;23;20025;-83
2023/05/15 06:26:05;;;;;;;12.45;6.90;;;12.00;99.90;;;;;;4931182;29;20082;-83
2023/05/15 06:28:53;;;;;;;10.25;6.32;;;;;;;;;;5035369;28;20034;-82
2023/05/15 06:39:03;;;;;;;14.88;6.55;;;;;;;;;;4941103;29;20035;-84
2023/05/15 06:41:29;;;;;;;10.20;6.50;;;;;;;;;;4927198;29;20050;-82
2023/05/15 06:43:55;;;;;;;10.55;6.53;;;;;;;;;;4926472;29;20024;-83
2023/05/15 06:46:21;;;;;;;12.30;7.53;;;;;;;;;;4941710;29;20012;-79
2023/05/15 06:48:54;;;;;;;10.30;6.10;;;12.20;99.90;;;;;;4940548;29;20016;-81
2023/05/15 06:51:20;;;;;;;11.07;6.05;;;;;;;;;;4940795;29;20072;-82
2023/05/15 06:59:18;;;;;;;11.75;6.75;;;12.40;99.90;;;;;;5438927;23;20281;-83
2023/05/15 07:02:07;;;;;;;13.02;6.85;;;12.60;99.90;;;;;;5575753;23;20026;-81
2023/05/15 07:04:49;;;;;;;9.43;6.45;;;13.00;99.90;;;;;;4946306;28;20062;-84
2023/05/15 07:07:15;;;;;;;10.02;6.60;;;;;;;;;;4942386;28;20138;-79
2023/05/15 07:10:22;;;;;;;8.80;5.88;;;13.40;99.90;;;;;;4975876;28;20019;-85
2023/05/15 07:12:48;;;;;;;7.80;5.95;;;;;;;;;;4954750;29;20034;-81
2023/05/15 07:15:16;;;;;;;8.68;5.45;;;;;;;;;;4952464;29;20023;-81
2023/05/15 07:17:42;;;;;;;10.98;6.35;;;13.90;99.90;;;;;;4943007;29;20365;-78
2023/05/15 07:20:08;;;;;;;9.43;6.32;;;14.00;99.90;;;;;;4961992;28;20038;-81
2023/05/15 07:22:34;;;;;;;12.10;6.43;;;13.90;99.90;;;;;;4938501;28;20079;-78
2023/05/15 07:24:59;;;;;;;9.45;5.63;;;13.80;99.90;;;;;;4941362;29;20039;-79
2023/05/15 07:27:25;;;;;;;11.80;6.53;;;14.00;99.90;;;;;;4936934;28;20027;-79
2023/05/15 07:29:59;;;;;;;10.57;7.07;;;14.00;99.90;;;;;;4957752;28;20027;-79
2023/05/15 07:32:25;;;;;;;11.27;6.55;;;14.50;99.90;;;;;;4929163;28;20114;-80
2023/05/15 07:34:51;;;;;;;10.88;6.63;;;14.10;99.90;;;;;;4944921;28;20031;-81
2023/05/15 07:37:17;;;;;;;8.50;6.20;;;14.10;99.90;;;;;;4943610;29;20492;-80
2023/05/15 07:39:42;;;;;;;11.75;6.85;;;14.10;99.90;;;;;;4942555;29;20102;-81
2023/05/15 07:42:08;;;;;;;10.02;6.18;;;13.70;99.90;;;;;;4942741;28;20130;-81
2023/05/15 07:44:34;;;;;;;13.15;7.18;;;13.70;99.90;;;;;;4943804;28;20035;-81
2023/05/15 07:47:00;;;;;;;16.67;8.70;;;;;;;;;;4942689;28;20030;-81
2023/05/15 07:49:26;;;;;;;12.55;7.47;;;;;;;;;;4953051;28;20015;-80
2023/05/15 07:51:52;;;;;;;12.45;7.68;;;;;;;;;;4936785;29;20035;-78
2023/05/15 07:54:17;;;;;;;14.20;7.53;;;13.80;99.90;;;;;;4952460;28;20095;-78
2023/05/15 07:56:43;;;;;;;13.90;7.80;;;13.80;99.90;;;;;;4935850;28;20051;-78
2023/05/15 07:59:09;;;;;;;16.63;8.10;;;13.80;99.90;;;;;;4953362;28;20528;-78
2023/05/15 08:01:34;;;;;;;14.27;7.65;;;13.80;99.90;;;;;;4935149;29;20046;-78
2023/05/15 08:04:00;;;;;;;16.27;8.38;;;13.80;99.90;;;;;;4951961;28;20323;-78
2023/05/15 08:06:25;;;;;;;14.70;8.30;;;13.70;99.90;;;;;;4953150;28;20038;-79
2023/05/15 08:08:51;;;;;;;11.90;7.53;;;13.80;99.90;;;;;;4952706;28;20512;-79
2023/05/15 08:11:17;;;;;;;10.25;7.65;;;13.80;99.90;;;;;;4934910;28;20035;-79
2023/05/15 08:13:43;;;;;;;16.10;8.13;;;;;;;;;;4940335;28;20444;-81
2023/05/15 08:16:09;;;;;;;14.27;9.20;;;;;;;;;;4951743;28;20031;-80
2023/05/15 08:18:35;;;;;;;12.50;7.65;;;14.20;99.90;;;;;;4938897;28;20024;-79
2023/05/15 08:21:00;;;;;;;19.88;8.18;;;14.20;99.90;;;;;;4937272;28;20137;-78
2023/05/15 08:23:27;;;;;;;14.93;8.88;;;;;;;;;;4958747;28;20278;-82
2023/05/15 08:25:52;;;;;;;12.43;7.07;;;14.60;99.90;;;;;;4947504;28;20551;-79
2023/05/15 08:28:18;;;;;;;11.48;7.22;;;;;;;;;;4940918;28;20019;-82
2023/05/15 08:30:44;;;;;;;10.98;8.10;;;;;;;;;;4946713;28;20122;-80
2023/05/15 08:33:10;;;;;;;13.55;7.95;;;15.00;99.90;;;;;;4942063;29;20028;-80
2023/05/15 08:35:36;;;;;;;10.60;6.82;;;;;;;;;;4940822;29;20027;-81
2023/05/15 08:38:02;;;;;;;14.57;7.63;;;15.50;99.90;;;;;;4946929;29;20038;-81
2023/05/15 08:40:28;;;;;;;12.40;6.35;;;15.70;99.90;;;;;;4947741;28;20016;-82
2023/05/15 08:42:55;;;;;;;12.30;6.95;;;15.90;99.90;;;;;;4949459;28;20086;-79
2023/05/15 08:45:21;;;;;;;10.40;6.63;;;16.40;99.90;;;;;;4933418;29;20036;-79
2023/05/15 08:47:47;;;;;;;13.85;6.70;;;17.00;99.90;;;;;;4937056;29;20063;-80
2023/05/15 08:50:16;;;;;;;12.57;6.93;;;17.50;99.90;;;;;;4953742;28;20032;-80
2023/05/15 08:52:46;;;;;;;12.90;6.70;;;17.40;99.90;;;;;;4939371;29;20023;-80
2023/05/15 08:55:16;;;;;;;8.70;5.88;;;17.40;99.90;;;;;;4937805;29;20039;-79
2023/05/15 08:57:43;;;;;;;8.57;5.88;;;18.10;99.90;;;;;;4949696;28;20031;-79
2023/05/15 09:00:13;;;;;;;8.98;5.85;;;17.70;99.90;;;;;;4935708;28;20045;-77
2023/05/15 09:02:39;;;;;;;10.40;6.32;;;17.60;99.90;;;;;;4937336;28;20039;-78
2023/05/15 09:05:06;;;;;;;7.82;5.40;;;17.40;99.90;;;;;;4955413;28;20035;-77
2023/05/15 09:07:32;;;;;;;13.35;6.45;;;17.30;99.90;;;;;;4938268;28;20028;-78
2023/05/15 09:09:58;;;;;;;11.10;6.20;;;16.90;99.90;;;;;;4955683;28;20547;-78
2023/05/15 09:12:25;;;;;;;9.00;5.95;;;16.90;99.90;;;;;;4935938;29;20023;-78
2023/05/15 09:14:51;;;;;;;8.90;5.93;;;17.20;99.90;;;;;;4937900;29;20031;-78
2023/05/15 09:17:17;;;;;;;12.68;6.35;;;17.40;99.90;;;;;;4938069;29;20020;-79
2023/05/15 09:19:43;;;;;;;6.30;5.22;;;17.30;99.90;;;;;;4957157;29;20095;-79
2023/05/15 09:22:16;;;;;;;11.75;6.95;;;17.40;99.90;;;;;;4936790;29;20023;-81
2023/05/15 09:24:42;;;;;;;9.18;6.43;;;17.30;99.90;;;;;;4922823;29;20031;-79
2023/05/15 09:27:10;;;;;;;10.50;6.97;;;17.30;99.90;;;;;;4918908;29;20031;-79
2023/05/15 09:29:38;;;;;;;12.45;6.78;;;17.60;99.90;;;;;;4920217;29;20030;-79
2023/05/15 09:32:07;;;;;;;10.30;6.05;;;17.50;99.90;;;;;;4918584;29;20028;-78
2023/05/15 09:34:35;;;;;;;12.40;6.60;;;17.30;99.90;;;;;;4935112;29;20031;-78
2023/05/15 09:37:05;;;;;;;10.37;6.20;;;16.90;99.90;;;;;;4919851;29;20271;-81
2023/05/15 09:39:31;;;;;;;14.25;5.88;;;16.40;99.90;;;;;;4923976;29;20286;-78
2023/05/15 09:42:07;;;;;;;10.23;6.75;;;16.40;99.90;;;;;;4919856;29;20384;-78
2023/05/15 09:44:33;;;;;;;12.35;6.65;;;16.40;99.90;;;;;;4921788;29;20417;-79
2023/05/15 09:47:00;;;;;;;9.15;6.47;;;16.40;99.90;;;;;;4921304;29;20035;-79
2023/05/15 09:49:30;;;;;;;13.23;6.85;;;16.40;99.90;;;;;;4936299;29;20027;-78
2023/05/15 09:51:59;;;;;;;13.82;6.93;;;16.60;99.90;;;;;;4919958;29;20397;-78
2023/05/15 09:54:26;;;;;;;;;;;16.50;99.90;;;;;;4918311;29;20024;-79
2023/05/15 09:56:52;;;;;;;10.23;6.07;;;17.80;99.90;;;;;;4918450;29;19906;-78
2023/05/15 09:59:21;;;;;;;11.85;6.70;;;17.80;99.90;;;;;;4918676;29;20083;-79
2023/05/15 10:01:49;;;;;;;12.73;5.88;;;18.20;99.90;;;;;;4919727;29;20043;-79
2023/05/15 10:04:15;;;;;;;7.63;6.47;;;18.70;99.90;;;;;;4935892;29;20504;-77
2023/05/15 10:06:42;;;;;;;9.30;5.47;;;18.60;99.90;;;;;;4936134;29;20034;-80
2023/05/15 10:09:09;;;;;;;8.73;6.63;;;19.00;99.90;;;;;;4918090;28;20059;-78
2023/05/15 10:11:37;;;;;;;10.25;6.13;;;19.50;99.90;;;;;;4937017;28;20089;-79
2023/05/15 10:14:15;;;;;;;8.95;5.15;;;19.90;99.90;;;;;;4936907;29;20046;-79
2023/05/15 10:16:41;;;;;;;6.47;4.38;;;19.80;95.80;;;;;;4936411;29;20023;-80
2023/05/15 10:19:11;;;;;;;6.75;4.28;;;20.20;94.60;;;;;;4935845;29;20118;-77
2023/05/15 10:21:39;;;;;;;4.80;4.20;;;20.80;92.10;;;;;;4917465;29;20083;-78
2023/05/15 10:24:06;;;;;;;6.13;4.35;;;21.20;89.40;;;;;;4917059;29;20028;-77
2023/05/15 10:26:39;;;;;;;5.75;4.75;;;21.50;84.20;;;;;;4917064;29;20040;-77
2023/05/15 10:29:13;;;;;;;5.40;4.07;;;21.90;86.10;;;;;;4934423;29;20023;-77
2023/05/15 10:31:40;;;;;;;4.50;4.07;;;21.00;79.40;;;;;;4934029;29;20087;-78
2023/05/15 10:34:07;;;;;;;5.07;3.80;;;19.70;81.60;;;;;;4916993;29;20038;-77
2023/05/15 10:36:34;;;;;;;4.03;3.42;;;20.20;81.30;;;;;;4934329;29;20254;-78
2023/05/15 10:39:02;;;;;;;4.97;3.22;;;20.30;81.20;;;;;;4916820;29;20039;-77
2023/05/15 10:41:29;;;;;;;5.10;3.65;;;21.40;78.90;;;;;;4950307;28;20024;-77
2023/05/15 10:43:58;;;;;;;4.32;3.28;;;21.20;72.50;;;;;;4953242;28;20030;-76
2023/05/15 10:46:24;;;;;;;6.57;4.20;;;;;;;;;;4952460;28;20023;-77
2023/05/15 10:48:51;;;;;;;5.75;4.18;;;20.00;78.40;;;;;;4952305;28;20031;-77
2023/05/15 10:51:18;;;;;;;4.43;3.30;;;20.20;75.50;;;;;;4935694;28;20495;-78
2023/05/15 10:53:44;;;;;;;5.82;2.83;;;20.10;75.90;;;;;;4952738;28;20054;-78
2023/05/15 10:56:15;;;;;;;4.13;3.20;;;20.80;74.60;;;;;;4952676;28;20023;-77
2023/05/15 10:58:48;;;;;;;4.18;3.30;;;20.80;75.70;;;;;;4953248;28;20055;-76
2023/05/15 11:01:43;;;;;;;3.33;3.03;;;20.60;72.80;;;;;;4935809;29;20110;-78
2023/05/15 11:04:10;;;;;;;4.35;3.60;;;20.30;75.70;;;;;;4936124;28;20077;-78
2023/05/15 11:06:47;;;;;;;4.35;3.95;;;19.20;79.40;;;;;;4953162;28;20026;-77
2023/05/15 11:09:37;;;;;;;3.92;3.28;;;19.80;77.20;;;;;;4952366;28;20712;-78
2023/05/15 11:12:04;;;;;;;4.60;3.70;;;19.70;78.00;;;;;;4935482;28;20027;-77
2023/05/15 11:14:39;;;;;;;5.47;3.38;;;21.10;73.00;;;;;;4953020;28;20047;-77
2023/05/15 11:17:07;;;;;;;3.80;3.40;;;21.10;73.70;;;;;;4953311;28;20247;-78
2023/05/15 11:19:38;;;;;;;4.43;3.13;;;21.10;75.10;;;;;;4952850;28;20464;-78
2023/05/15 11:22:07;;;;;;;3.95;3.28;;;22.00;70.40;;;;;;4935267;28;20079;-77
2023/05/15 11:24:58;;;;;;;4.15;3.05;;;22.20;68.30;;;;;;4934347;29;20126;-78
2023/05/15 11:27:26;;;;;;;3.65;3.30;;;21.90;68.40;;;;;;4952733;28;20433;-78
2023/05/15 11:30:11;;;;;;;5.05;3.35;;;20.00;73.60;;;;;;4935416;28;20035;-79
2023/05/15 11:32:46;;;;;;;4.05;3.10;;;21.00;75.30;;;;;;4952647;28;20128;-77
2023/05/15 11:35:18;;;;;;;4.80;3.03;;;21.40;76.30;;;;;;4935137;28;20023;-77
2023/05/15 11:37:52;;;;;;;3.88;3.25;;;22.30;66.80;;;;;;4952260;28;20027;-78
2023/05/15 11:40:24;;;;;;;6.07;3.67;;;22.00;67.50;;;;;;4952118;28;20136;-77
2023/05/15 11:43:20;;;;;;;4.80;3.63;;;22.60;67.40;;;;;;4934987;29;20037;-78
2023/05/15 11:45:54;;;;;;;5.22;4.07;;;22.80;70.70;;;;;;4951939;28;20043;-77
2023/05/15 11:48:22;;;;;;;4.30;3.75;;;21.50;73.60;;;;;;4934427;28;20484;-77
2023/05/15 11:50:48;;;;;;;7.75;4.28;;;21.50;70.10;;;;;;4952022;28;20527;-78
2023/05/15 11:53:15;;;;;;;9.43;3.90;;;22.50;71.20;;;;;;4934691;29;20118;-78
2023/05/15 11:55:42;;;;;;;4.97;3.53;;;22.80;68.30;;;;;;4951825;28;20082;-76
2023/05/15 11:58:16;;;;;;;3.80;3.28;;;22.10;70.70;;;;;;4952031;28;20027;-77
2023/05/15 12:00:46;;;;;;;4.75;3.35;;;21.00;70.30;;;;;;4934311;28;20436;-77
2023/05/15 12:03:15;;;;;;;4.50;3.38;;;20.60;71.20;;;;;;4942529;28;20564;-76
2023/05/15 12:05:41;;;;;;;5.43;3.83;;;20.10;70.80;;;;;;4915518;29;20031;-77
2023/05/15 12:08:11;;;;;;;4.45;3.70;;;20.80;76.60;;;;;;4932921;29;20028;-78
2023/05/15 12:10:42;;;;;;;4.05;2.70;;;21.70;73.80;;;;;;4915192;29;20055;-77
2023/05/15 12:13:08;;;;;;;2.85;2.63;;;23.30;65.30;;;;;;4932556;29;20098;-77
2023/05/15 12:15:42;;;;;;;2.42;2.17;;;24.70;61.80;;;;;;4932973;29;20051;-77
2023/05/15 12:18:09;;;;;;;2.67;2.47;;;25.50;58.60;;;;;;4932656;29;20130;-78
2023/05/15 12:20:36;;;;;;;2.65;2.42;;;25.40;61.30;;;;;;4932366;29;20027;-78
2023/05/15 12:23:07;;;;;;;3.67;3.28;;;22.90;63.60;;;;;;4932612;29;20035;-77
2023/05/15 12:25:37;;;;;;;3.47;3.17;;;22.80;64.30;;;;;;4915130;29;20047;-78
2023/05/15 12:28:04;;;;;;;4.25;3.03;;;21.90;66.60;;;;;;4932773;29;20062;-78
2023/05/15 12:30:32;;;;;;;3.92;3.33;;;21.80;68.70;;;;;;4934404;29;20016;-78
2023/05/15 12:33:03;;;;;;;7.72;2.83;;;20.20;68.80;;;;;;4934848;29;20023;-77
2023/05/15 12:35:31;;;;;;;3.67;2.95;;;19.00;70.90;;;;;;4934405;29;20031;-78
2023/05/15 12:37:57;;;;;;;4.93;2.97;;;18.20;75.00;;;;;;4938431;29;20027;-78
2023/05/15 12:40:23;;;;;;;4.50;2.97;;;20.60;78.80;;;;;;4938247;29;20036;-78
2023/05/15 12:42:53;;;;;;;2.33;2.13;;;17.90;82.10;;;;;;4919527;29;20015;-78
2023/05/15 12:45:20;;;;;;;3.67;2.60;;;17.60;92.60;;;;;;4920717;29;20051;-78
2023/05/15 12:47:48;;;;;;;5.20;2.90;;;17.00;99.90;;;;;;4941121;29;20031;-79
2023/05/15 12:50:21;;;;;;;3.53;3.05;;;16.20;99.90;;;;;;4923682;29;20063;-81
2023/05/15 13:00:55;;;;;;;3.40;2.15;;;;;;;;;;5781864;23;20049;-81
2023/05/15 13:03:25;;;;;;;3.15;2.45;;;;;;;;;;5001465;28;20026;-82
2023/05/15 13:05:51;;;;;;;2.15;1.98;;;;;;;;;;5079129;23;20047;-81
2023/05/15 13:08:18;;;;;;;2.92;2.08;;;;;;;;;;5097828;23;20072;-80
2023/05/15 13:10:44;;;;;;;2.92;1.83;;;16.60;99.90;;;;;;4997989;28;20036;-79
2023/05/15 13:13:46;;;;;;;1.73;1.63;;;17.40;99.90;;;;;;5006898;28;20034;-83
2023/05/15 13:16:28;;;;;;;2.30;2.10;;;17.90;98.80;;;;;;5030463;28;20030;-82
2023/05/15 13:18:59;;;;;;;1.95;1.85;;;;;;;;;;5016356;28;20068;-81
2023/05/15 13:21:25;;;;;;;2.95;2.75;;;18.20;99.70;;;;;;4989636;28;20037;-81
2023/05/15 13:23:53;;;;;;;4.07;3.17;;;;;;;;;;4991686;28;20054;-83
2023/05/15 13:26:19;;;;;;;3.20;2.87;;;;;;;;;;4985502;28;20022;-79
2023/05/15 13:28:45;;;;;;;5.03;3.00;;;17.10;99.90;;;;;;4981112;28;20022;-81
2023/05/15 13:31:11;;;;;;;2.70;2.50;;;16.30;99.90;;;;;;4978729;28;20038;-79
2023/05/15 13:33:37;;;;;;;3.60;2.72;;;16.20;99.90;;;;;;4983157;28;20026;-81
2023/05/15 13:36:02;;;;;;;3.15;2.90;;;15.90;99.90;;;;;;4987708;28;20018;-79
2023/05/15 13:38:28;;;;;;;2.60;2.40;;;15.80;99.90;;;;;;4990448;28;20053;-80